European Seaway — MPDG3 — position and weather

sailwx.info

Track history (hours):
 
Tides and Currents Weather Stations Pressure Air Temp Water Temp Dewpoint Dewpoint Depression Visibility Wind Speed Wind Dir Waves Ship Positions

European Seaway

Operator: P & O Ferries

Last reported at 2016-Oct-01 13:33 UTC. Time now 2016-Oct-01 13:53 UTC.
Position N 51°07' E 001°20'.

Length 179 m; draft 6.1 m.

Type: Passenger vessel. MMSI: 232001040.

Date/timePositionNaut miles runAvg speedWind from/ knotsBaromVisibWave heightAir tempDewpointWater temp
2016-Oct-01 13:33N 51°07' E 001°20'2 0.2
2016-Oct-01 04:34N 51°06' E 001°23'2 2.2
2016-Oct-01 03:33N 51°07' E 001°20'22 7.2
2016-Oct-01 00:33N 50°58' E 001°51'0 0.0
2016-Sep-30 22:33N 50°58' E 001°51'0 0.0
2016-Sep-30 20:33N 50°58' E 001°51'22 7.2
2016-Sep-30 17:33N 51°07' E 001°20'1110.7
2016-Sep-30 16:34N 51°03' E 001°35'4 1.8
2016-Sep-30 14:33N 50°60' E 001°38'1413.8
2016-Sep-30 13:33N 51°07' E 001°20'21 7.1
2016-Sep-30 10:32N 50°58' E 001°51'2110.9
2016-Sep-30 08:33N 51°07' E 001°20'2210.6
2016-Sep-30 06:32N 50°58' E 001°51'22 7.2
2016-Sep-30 03:33N 51°07' E 001°20'6 6.2
2016-Sep-30 02:33N 51°06' E 001°30'16 5.2
2016-Sep-29 23:33N 50°58' E 001°51'0 0.0
2016-Sep-29 21:33N 50°58' E 001°51'1110.9
2016-Sep-29 20:33N 51°01' E 001°34'1110.9
2016-Sep-29 19:33N 51°07' E 001°20'21 7.1
2016-Sep-29 16:34N 50°58' E 001°51'0 0.2
2016-Sep-29 15:33N 50°58' E 001°51'1414.3
2016-Sep-29 14:33N 51°04' E 001°30'7 7.2
2016-Sep-29 13:33N 51°07' E 001°20'0 0.0
2016-Sep-29 08:33N 51°07' E 001°20'9 9.3
2016-Sep-29 07:34N 51°03' E 001°33'12 1.8
2016-Sep-29 00:33N 50°58' E 001°51'0 0.0
2016-Sep-28 21:33N 50°58' E 001°51'9 4.3
2016-Sep-28 19:33N 50°59' E 001°37'6 1.9
2016-Sep-28 16:34N 50°58' E 001°47'3 2.8
2016-Sep-28 15:33N 50°58' E 001°51'18 6.0
2016-Sep-28 12:33N 51°07' E 001°26'4 0.9
2016-Sep-28 08:33N 51°07' E 001°20'0 0.0
2016-Sep-28 03:33N 51°07' E 001°20'8 8.3
2016-Sep-28 02:33N 51°05' E 001°33'1313.2
2016-Sep-28 01:33N 50°58' E 001°51'0 0.1
2016-Sep-27 23:33N 50°58' E 001°51'5 1.2
2016-Sep-27 19:34N 50°58' E 001°43'4 0.8
2016-Sep-27 14:33N 51°00' E 001°37'1312.9
2016-Sep-27 13:33N 51°07' E 001°20'21 7.1
2016-Sep-27 10:32N 50°58' E 001°51'0 0.0
2016-Sep-27 00:34N 50°58' E 001°51'0 0.0
2016-Sep-26 20:34N 50°58' E 001°51'2 1.6
2016-Sep-26 19:33N 50°58' E 001°48'2 0.4
2016-Sep-26 15:33N 50°58' E 001°51'2210.8
2016-Sep-26 13:33N 51°07' E 001°20'2110.4
2016-Sep-26 11:33N 50°58' E 001°50'21 6.9
2016-Sep-26 08:33N 51°07' E 001°20'22 3.6
2016-Sep-26 02:33N 50°58' E 001°51'0 0.0
2016-Sep-26 01:33N 50°58' E 001°51'0 0.0
2016-Sep-26 00:33N 50°58' E 001°51'0 0.0
2016-Sep-25 21:33N 50°58' E 001°51'22 5.4
2016-Sep-25 17:33N 51°07' E 001°20'10 9.8
2016-Sep-25 16:33N 51°03' E 001°34'1211.9
2016-Sep-25 15:33N 50°58' E 001°51'5 4.7
2016-Sep-25 14:34N 50°58' E 001°43'16 7.8
2016-Sep-25 12:33N 51°07' E 001°23'1817.8
2016-Sep-25 11:34N 50°58' E 001°48'2 2.1
2016-Sep-25 10:34N 50°58' E 001°51'1414.0
2016-Sep-25 09:33N 51°02' E 001°30'2 1.0
2016-Sep-25 07:33N 51°04' E 001°31'14 4.6
2016-Sep-25 04:33N 50°58' E 001°51'0 0.0
2016-Sep-25 00:33N 50°58' E 001°51'0 0.0
2016-Sep-24 22:33N 50°58' E 001°51'0 0.0
2016-Sep-24 21:33N 50°58' E 001°51'0 0.1
2016-Sep-24 19:33N 50°58' E 001°51'1717.2
2016-Sep-24 18:33N 51°05' E 001°26'4 4.1
2016-Sep-24 17:33N 51°07' E 001°20'1413.8
2016-Sep-24 16:33N 51°01' E 001°40'3 1.4
2016-Sep-24 14:33N 50°58' E 001°40'13 6.5
2016-Sep-24 12:33N 51°07' E 001°24'19 9.5
2016-Sep-24 10:33N 50°58' E 001°51'1313.1
2016-Sep-24 09:34N 51°02' E 001°31'9 1.5
2016-Sep-24 03:33N 51°07' E 001°20'5 5.0
2016-Sep-24 02:33N 51°06' E 001°28'1616.4
2016-Sep-24 01:33N 50°58' E 001°51'0 0.3
2016-Sep-24 00:33N 50°58' E 001°51'1 0.1
2016-Sep-23 19:33N 50°58' E 001°50'2110.5
2016-Sep-23 17:33N 51°07' E 001°20'1313.1
2016-Sep-23 16:33N 51°01' E 001°38'9 8.6
2016-Sep-23 15:33N 50°58' E 001°51'2210.8
2016-Sep-23 13:34N 51°07' E 001°20'5 1.2
2016-Sep-23 09:34N 51°05' E 001°27'17 5.7
2016-Sep-23 06:33N 50°58' E 001°52'2110.3
2016-Sep-23 04:33N 51°07' E 001°22'1 1.4
2016-Sep-23 03:33N 51°07' E 001°20'1110.7
2016-Sep-23 02:33N 51°02' E 001°35'1111.4
2016-Sep-23 01:34N 50°58' E 001°52'0 0.0
2016-Sep-23 00:34N 50°58' E 001°52'0 0.0
2016-Sep-22 23:33N 50°58' E 001°52'0 0.0
2016-Sep-22 20:34N 50°58' E 001°52'19 2.4
2016-Sep-22 12:34N 51°07' E 001°24'2 0.2
2016-Sep-22 04:33N 51°07' E 001°22'1 1.1
2016-Sep-22 03:33N 51°07' E 001°20'22 7.3
2016-Sep-22 00:33N 50°58' E 001°52'0 0.0
2016-Sep-21 23:33N 50°58' E 001°52'0 0.0
2016-Sep-21 22:33N 50°58' E 001°52'19 6.2
2016-Sep-21 19:33N 51°06' E 001°25'18 6.0
2016-Sep-21 16:34N 50°58' E 001°51'  
Track history (hours):
 
Tides and Currents Weather Stations Pressure Air Temp Water Temp Dewpoint Dewpoint Depression Visibility Wind Speed Wind Dir Waves Ship Positions

European Seaway

Operator: P & O Ferries

Last reported at 2016-Oct-01 13:33 UTC. Time now 2016-Oct-01 13:53 UTC.
Position N 51°07' E 001°20'.

Length 179 m; draft 6.1 m.

Type: Passenger vessel. MMSI: 232001040.

Date/timePositionNaut miles runAvg speedWind from/ knotsBaromVisibWave heightAir tempDewpointWater temp
2016-Oct-01 13:33N 51°07' E 001°20'2 0.2
2016-Oct-01 04:34N 51°06' E 001°23'2 2.2
2016-Oct-01 03:33N 51°07' E 001°20'22 7.2
2016-Oct-01 00:33N 50°58' E 001°51'0 0.0
2016-Sep-30 22:33N 50°58' E 001°51'0 0.0
2016-Sep-30 20:33N 50°58' E 001°51'22 7.2
2016-Sep-30 17:33N 51°07' E 001°20'1110.7
2016-Sep-30 16:34N 51°03' E 001°35'4 1.8
2016-Sep-30 14:33N 50°60' E 001°38'1413.8
2016-Sep-30 13:33N 51°07' E 001°20'21 7.1
2016-Sep-30 10:32N 50°58' E 001°51'2110.9
2016-Sep-30 08:33N 51°07' E 001°20'2210.6
2016-Sep-30 06:32N 50°58' E 001°51'22 7.2
2016-Sep-30 03:33N 51°07' E 001°20'6 6.2
2016-Sep-30 02:33N 51°06' E 001°30'16 5.2
2016-Sep-29 23:33N 50°58' E 001°51'0 0.0
2016-Sep-29 21:33N 50°58' E 001°51'1110.9
2016-Sep-29 20:33N 51°01' E 001°34'1110.9
2016-Sep-29 19:33N 51°07' E 001°20'21 7.1
2016-Sep-29 16:34N 50°58' E 001°51'0 0.2
2016-Sep-29 15:33N 50°58' E 001°51'1414.3
2016-Sep-29 14:33N 51°04' E 001°30'7 7.2
2016-Sep-29 13:33N 51°07' E 001°20'0 0.0
2016-Sep-29 08:33N 51°07' E 001°20'9 9.3
2016-Sep-29 07:34N 51°03' E 001°33'12 1.8
2016-Sep-29 00:33N 50°58' E 001°51'0 0.0
2016-Sep-28 21:33N 50°58' E 001°51'9 4.3
2016-Sep-28 19:33N 50°59' E 001°37'6 1.9
2016-Sep-28 16:34N 50°58' E 001°47'3 2.8
2016-Sep-28 15:33N 50°58' E 001°51'18 6.0
2016-Sep-28 12:33N 51°07' E 001°26'4 0.9
2016-Sep-28 08:33N 51°07' E 001°20'0 0.0
2016-Sep-28 03:33N 51°07' E 001°20'8 8.3
2016-Sep-28 02:33N 51°05' E 001°33'1313.2
2016-Sep-28 01:33N 50°58' E 001°51'0 0.1
2016-Sep-27 23:33N 50°58' E 001°51'5 1.2
2016-Sep-27 19:34N 50°58' E 001°43'4 0.8
2016-Sep-27 14:33N 51°00' E 001°37'1312.9
2016-Sep-27 13:33N 51°07' E 001°20'21 7.1
2016-Sep-27 10:32N 50°58' E 001°51'0 0.0
2016-Sep-27 00:34N 50°58' E 001°51'0 0.0
2016-Sep-26 20:34N 50°58' E 001°51'2 1.6
2016-Sep-26 19:33N 50°58' E 001°48'2 0.4
2016-Sep-26 15:33N 50°58' E 001°51'2210.8
2016-Sep-26 13:33N 51°07' E 001°20'2110.4
2016-Sep-26 11:33N 50°58' E 001°50'21 6.9
2016-Sep-26 08:33N 51°07' E 001°20'22 3.6
2016-Sep-26 02:33N 50°58' E 001°51'0 0.0
2016-Sep-26 01:33N 50°58' E 001°51'0 0.0
2016-Sep-26 00:33N 50°58' E 001°51'0 0.0
2016-Sep-25 21:33N 50°58' E 001°51'22 5.4
2016-Sep-25 17:33N 51°07' E 001°20'10 9.8
2016-Sep-25 16:33N 51°03' E 001°34'1211.9
2016-Sep-25 15:33N 50°58' E 001°51'5 4.7
2016-Sep-25 14:34N 50°58' E 001°43'16 7.8
2016-Sep-25 12:33N 51°07' E 001°23'1817.8
2016-Sep-25 11:34N 50°58' E 001°48'2 2.1
2016-Sep-25 10:34N 50°58' E 001°51'1414.0
2016-Sep-25 09:33N 51°02' E 001°30'2 1.0
2016-Sep-25 07:33N 51°04' E 001°31'14 4.6
2016-Sep-25 04:33N 50°58' E 001°51'0 0.0
2016-Sep-25 00:33N 50°58' E 001°51'0 0.0
2016-Sep-24 22:33N 50°58' E 001°51'0 0.0
2016-Sep-24 21:33N 50°58' E 001°51'0 0.1
2016-Sep-24 19:33N 50°58' E 001°51'1717.2
2016-Sep-24 18:33N 51°05' E 001°26'4 4.1
2016-Sep-24 17:33N 51°07' E 001°20'1413.8
2016-Sep-24 16:33N 51°01' E 001°40'3 1.4
2016-Sep-24 14:33N 50°58' E 001°40'13 6.5
2016-Sep-24 12:33N 51°07' E 001°24'19 9.5
2016-Sep-24 10:33N 50°58' E 001°51'1313.1
2016-Sep-24 09:34N 51°02' E 001°31'9 1.5
2016-Sep-24 03:33N 51°07' E 001°20'5 5.0
2016-Sep-24 02:33N 51°06' E 001°28'1616.4
2016-Sep-24 01:33N 50°58' E 001°51'0 0.3
2016-Sep-24 00:33N 50°58' E 001°51'1 0.1
2016-Sep-23 19:33N 50°58' E 001°50'2110.5
2016-Sep-23 17:33N 51°07' E 001°20'1313.1
2016-Sep-23 16:33N 51°01' E 001°38'9 8.6
2016-Sep-23 15:33N 50°58' E 001°51'2210.8
2016-Sep-23 13:34N 51°07' E 001°20'5 1.2
2016-Sep-23 09:34N 51°05' E 001°27'17 5.7
2016-Sep-23 06:33N 50°58' E 001°52'2110.3
2016-Sep-23 04:33N 51°07' E 001°22'1 1.4
2016-Sep-23 03:33N 51°07' E 001°20'1110.7
2016-Sep-23 02:33N 51°02' E 001°35'1111.4
2016-Sep-23 01:34N 50°58' E 001°52'0 0.0
2016-Sep-23 00:34N 50°58' E 001°52'0 0.0
2016-Sep-22 23:33N 50°58' E 001°52'0 0.0
2016-Sep-22 20:34N 50°58' E 001°52'19 2.4
2016-Sep-22 12:34N 51°07' E 001°24'2 0.2
2016-Sep-22 04:33N 51°07' E 001°22'1 1.1
2016-Sep-22 03:33N 51°07' E 001°20'22 7.3
2016-Sep-22 00:33N 50°58' E 001°52'0 0.0
2016-Sep-21 23:33N 50°58' E 001°52'0 0.0
2016-Sep-21 22:33N 50°58' E 001°52'19 6.2
2016-Sep-21 19:33N 51°06' E 001°25'18 6.0
2016-Sep-21 16:34N 50°58' E 001°51'  

Dump ship's entire track history